SLC pilot info

Salt Lake City International Airport
Salt Lake City, Utah, United States

General pilot information for Salt Lake City International Airport

Airport codes

SLC KSLC

Type

major airport (frequent airline service)

Airline service

yes

Serves

Salt Lake City, Utah, United States

Latitude

40.788399 | 40 47.303925 N | N40 47 18

Longitude

-111.977997 | 111 58.679810 W | W111 58 40

Field elevation

4,227 ft / 1,288 m MSL

Magnetic variation

12.5°E

Notices to Airmen (NOTAM) for Salt Lake City International Airport

Please confirm all NOTAMs at the original source! These are for information only, and may be wrong, out of date, or incomplete.

!SLC 10/183 SLC COM CPDLC DEP CLR LOGON CHANGED TO KUSA 1710220608-PERM CREATED: 22 Oct 2017 06:10:00 SOURCE: KCDCYFYX

!SLC 10/182 SLC SVC SMR OUT OF SERVICE 1710250400-1710251000 CREATED: 22 Oct 2017 04:00:00 SOURCE: POCC

!SLC 10/180 SLC APRON AIR CARRIER APN ACCESS 7 CLSD 1710220315-1710221400 CREATED: 22 Oct 2017 00:07:00 SOURCE: SLC

!SLC 10/179 SLC APRON AIR CARRIER APN ACCESS 8 CLSD 1710220230-1710221400 CREATED: 22 Oct 2017 00:07:00 SOURCE: SLC

!SLC 10/178 SLC APRON AIR CARRIER APN ACCESS 18 CLSD 1710220006-1710221400 CREATED: 22 Oct 2017 00:06:00 SOURCE: SLC

!SLC 10/172 SLC OBST TOWER LGT (ASR 1039697) 404621.00N1120017.00W (1.5NM SW SLC) 4343.2FT (117.1FT AGL) OUT OF SERVICE 1710210156-1711191300 CREATED: 21 Oct 2017 01:58:00 SOURCE: KCDCYFYX

!SLC 10/171 SLC SVC MICROBURST/WS DETECTION SYSTEM NOT AVBL 1710232300-1710240100 CREATED: 20 Oct 2017 23:01:00 SOURCE: POCC

!SLC 10/160 SLC OBST TOWER LGT (ASR UNKNOWN) 404644.97N1115726.78W (1.08NM ESE SLC) 4263FT (42FT AGL) OUT OF SERVICE 1710191708-1711031708 CREATED: 19 Oct 2017 17:10:00 SOURCE: KCDCYFYX

!SLC 10/159 SLC TWY G CL LGT OUT OF SERVICE 1710190226-1710222359 CREATED: 19 Oct 2017 02:26:00 SOURCE: SLC

!SLC 10/149 SLC TWY U CLSD 1710171638-1710282300 CREATED: 17 Oct 2017 16:38:00 SOURCE: SLC

!SLC 10/109 SLC TWY P IN PAVEMENT RWY GUARD LGT AT RWY 14/32 OUT OF SERVICE 1710121311-1712312359 CREATED: 12 Oct 2017 13:11:00 SOURCE: SLC

!SLC 10/108 SLC TWY N IN PAVEMENT RWY GUARD LGT AT RWY 14/32 OUT OF SERVICE 1710121310-1712312359 CREATED: 12 Oct 2017 13:10:00 SOURCE: SLC

!SLC 10/098 SLC COM REMOTE COM OUTLET 122.4, 255.4 OUT OF SERVICE 1710111200-1711082359 CREATED: 11 Oct 2017 11:08:00 SOURCE: POCC

!SLC 09/228 SLC RWY 34R SEQUENCED FLG LGT OUT OF SERVICE 1709271446-1710252100EST CREATED: 27 Sep 2017 14:46:00 SOURCE: POCC

!SLC 09/057 SLC OBST CRANE (ASN UNKNOWN) 404708N1115926W (.68NM NNE APCH END RWY 34L) UNKNOWN (175FT AGL) FLAGGED AND LGTD 1709062216-1712312359 CREATED: 06 Sep 2017 22:16:00 SOURCE: SLC

!SLC 09/052 SLC TWY A BTN TWY A4 AND TWY E WIP CONST BARRICADED 1709061349-1711152359 CREATED: 06 Sep 2017 13:49:00 SOURCE: SLC

!SLC 09/051 SLC TWY A BTN TWY A4 AND TWY E CLSD 1709061347-1711152359 CREATED: 06 Sep 2017 13:47:00 SOURCE: SLC

!SLC 09/050 SLC TWY A5 CLSD 1709061344-1711152359 CREATED: 06 Sep 2017 13:44:00 SOURCE: SLC

!SLC 09/049 SLC TWY B CLSD TO ACFT WINGSPAN MORE THAN 171FT 1709061341-1711152359 CREATED: 06 Sep 2017 13:41:00 SOURCE: SLC

!SLC 09/009 SLC APRON AIR CARRIER APN ACCESS 20 CLSD 1709012031-1711152359 CREATED: 01 Sep 2017 20:31:00 SOURCE: SLC

!SLC 09/008 SLC APRON AIR CARRIER APN ACCESS 20 TXL CLSD 1709012030-1711152359 CREATED: 01 Sep 2017 20:30:00 SOURCE: SLC

!SLC 09/007 SLC APRON AIR CARRIER APN ACCESS 20 TXL WIP CONST 1709012028-1711152359 CREATED: 01 Sep 2017 20:28:00 SOURCE: SLC

!SLC 08/308 SLC TWY A CL LGT BTN TWY A1 AND TWY A8 OUT OF SERVICE 1708312335-1711152359 CREATED: 31 Aug 2017 23:35:00 SOURCE: SLC

!SLC 08/307 SLC TWY A1, A2, A3, A4, A5 CL LGT OUT OF SERVICE 1708312333-1711152359 CREATED: 31 Aug 2017 23:33:00 SOURCE: SLC

!SLC 08/305 SLC TWY A1, A2, A3, A4, A5 IN PAVEMENT RWY GUARD LGT FOR RWYY 16R/34L OUT OF SERVICE 1708312329-1711152359 CREATED: 31 Aug 2017 23:29:00 SOURCE: SLC

!SLC 08/300 SLC RWY 16R LEAD OFF LGT AT TWY A6, A5, A4, A3, A1 OUT OF SERVICE 1708312317-1711152359 CREATED: 31 Aug 2017 23:17:00 SOURCE: SLC

!SLC 08/195 SLC OBST CRANE (ASN UNKNOWN) 404706N1115930W (.63NM NNE APCH END RWY 34L) UNKNOWN (175FT AGL) FLAGGED AND LGTD 1708221704-1712312359 CREATED: 22 Aug 2017 17:04:00 SOURCE: SLC

!SLC 06/189 SLC TWY B CL LGT BTN TWY A1 AND TWY A8 OUT OF SERVICE 1706211436-1710312359 CREATED: 21 Jun 2017 14:36:00 SOURCE: SLC

!SLC 05/238 SLC TWY F4 CL LGT OUT OF SERVICE 1705312038-1710312359 CREATED: 31 May 2017 20:38:00 SOURCE: SLC

!SLC 05/236 SLC APRON AIR CARRIER APN ACCESS 19 TXL CL LGT OUT OF SERVICE 1705312036-1710312359 CREATED: 31 May 2017 20:36:00 SOURCE: SLC

!SLC 05/235 SLC TWY A5 CL LGT FOR RWY 16R/34L OUT OF SERVICE 1705312034-1710312359 CREATED: 31 May 2017 20:34:00 SOURCE: SLC

!SLC 05/234 SLC TWY A5 CL LGT BTN TWY A AND TWY B OUT OF SERVICE 1705312033-1710312359 CREATED: 31 May 2017 20:34:00 SOURCE: SLC

!SLC 05/221 SLC APRON AIR CARRIER APN ACCESS 21W TXL WIP CONST 1705310500-1711302359 CREATED: 30 May 2017 01:46:00 SOURCE: SLC

!SLC 05/217 SLC APRON AIR CARRIER APN ACCESS 21W TXL CLSD 1705310500-1711302359 CREATED: 30 May 2017 01:42:00 SOURCE: SLC

!SLC 05/216 SLC APRON AIR CARRIER APN ACCESS 21W CLSD 1705310500-1711302359 CREATED: 30 May 2017 01:41:00 SOURCE: SLC

!SLC 05/215 SLC APRON AIR CARRIER APN ACCESS 21N CLSD 1705310500-1711302359 CREATED: 30 May 2017 01:41:00 SOURCE: SLC

!SLC 04/124 SLC OBST CRANE (ASN UNKNOWN) 404652N1115912W (.54NM NE APCH END RWY 34L) UNKNOWN (190FT AGL) FLAGGED AND LGTD 1704171615-1712312359 CREATED: 17 Apr 2017 16:15:00 SOURCE: SLC

!SLC 04/121 SLC OBST CRANE (ASN UNKNOWN) 404637N1115727W (.29NM NE APCH END RWY 35) UNKNOWN (155FT AGL) FLAGGED TUE WED THU FRI SAT MON 1330-2359 1704181330-1710312359 CREATED: 17 Apr 2017 14:59:00 SOURCE: SLC

!SLC 02/051 SLC OBST CRANE (ASN UNKNOWN) 404706N1115907W (.76NM NE APCH END RWY 34L) UNKNOWN (180FT AGL) FLAGGED AND LGTD 1702071701-1712312359 CREATED: 07 Feb 2017 17:01:00 SOURCE: SLC

!SLC 02/050 SLC OBST RIG (ASN UNKNOWN) 404707N1115913W (.73NM NNE APCH END RWY 34L) UNKNOWN (150FT AGL) FLAGGED AND LGTD 1702071659-1712312359 CREATED: 07 Feb 2017 16:59:00 SOURCE: SLC

!SLC 02/049 SLC OBST RIG (ASN UNKNOWN) 404707N1115923W (.68NM NNE APCH END RWY 34L) UNKNOWN (150FT AGL) FLAGGED AND LGTD 1702071657-1712312359 CREATED: 07 Feb 2017 16:57:00 SOURCE: SLC

!SLC 02/048 SLC OBST RIG (ASN UNKNOWN) 404706N1115930W (.64NM NNE APCH END RWY 34L) UNKNOWN (150FT AGL) FLAGGED AND LGTD 1702071655-1712312359 CREATED: 07 Feb 2017 16:55:00 SOURCE: SLC

!FDC 7/3099 SLC IAP SALT LAKE CITY INTL, Salt Lake City, UT. ILS OR LOC RWY 34L, AMDT 3C... S-LOC 34L MDA 4640/ HAT 414 ALL CATS, VISIBILITY CATS C/D RVR 4000. TEMPORARY CRANES 4528 MSL BEGINNING 4110FT NORTHEAST OF RWY 34L (2017-ANM-548, 549, 550, 551-NRA). 1710121551-1801151500EST CREATED: 12 Oct 2017 15:51:00 SOURCE: KDZZNAXX

!FDC 7/7348 SLC IAP SALT LAKE CITY INTL, Salt Lake City, UT. RNAV (GPS) RWY 35, AMDT 3... LP MDA NA. 1710041824-1805161824EST CREATED: 04 Oct 2017 18:24:00 SOURCE: KDZZNAXX

!FDC 7/1604 SLC SID SALT LAKE CITY INTL, Salt Lake City, UT. WEVIC SIX DEPARTURE (RNAV)... NOTE: DISREGARD ALTITUDE CROSSING RESTRICTIONS AND PUBLISHED SPEED RESTRICTIONS. ALL OTHER DATA REMAINS AS PUBLISHED. 1709121313-1804241313EST CREATED: 12 Sep 2017 13:14:00 SOURCE: KDZZNAXX

!FDC 7/1603 SLC SID SALT LAKE CITY INTL, Salt Lake City, UT. TWIN FALLS FOUR DEPARTURE (RNAV)... NOTE: DISREGARD ALTITUDE CROSSING RESTRICTIONS AND PUBLISHED SPEED RESTRICTIONS. ALL OTHER DATA REMAINS AS PUBLISHED. 1709121313-1804241313EST CREATED: 12 Sep 2017 13:14:00 SOURCE: KDZZNAXX

!FDC 7/1602 SLC SID SALT LAKE CITY INTL, Salt Lake City, UT. PECOP FIVE DEPARTURE (RNAV)... NOTE: DISREGARD ALTITUDE CROSSING RESTRICTIONS AND PUBLISHED SPEED RESTRICTIONS. ALL OTHER DATA REMAINS AS PUBLISHED. 1709121313-1804241313EST CREATED: 12 Sep 2017 13:14:00 SOURCE: KDZZNAXX

!FDC 7/1601 SLC SID SALT LAKE CITY INTL, Salt Lake City, UT. LEETZ SIX DEPARTURE (RNAV)... NOTE: DISREGARD ALTITUDE CROSSING RESTRICTIONS AND PUBLISHED SPEED RESTRICTIONS. ALL OTHER DATA REMAINS AS PUBLISHED. 1709121313-1804241313EST CREATED: 12 Sep 2017 13:14:00 SOURCE: KDZZNAXX

!FDC 7/1600 SLC SID SALT LAKE CITY INTL, Salt Lake City, UT. EDETH FIVE DEPARTURE (RNAV)... NOTE: DISREGARD ALTITUDE CROSSING RESTRICTIONS AND PUBLISHED SPEED RESTRICTIONS. ALL OTHER DATA REMAINS AS PUBLISHED. 1709121313-1804241313EST CREATED: 12 Sep 2017 13:14:00 SOURCE: KDZZNAXX

!FDC 7/3780 SLC IAP SALT LAKE CITY INTL, Salt Lake City, UT. RNAV (GPS) RWY 34L, AMDT 1B ... LNAV/VNAV DA 4629/ HAT 403 ALL CATS, VISIBILITY ALL CATS RVR 4500. TEMPORARY CRANES 4528 MSL BEGINNING 4110FT NORTHEAST OF RWY 34L (2017-ANM-548, 549, 550, 551-NRA) 1708171247-1801151247EST CREATED: 17 Aug 2017 12:48:00 SOURCE: KDZZNAXX

!FDC 7/3528 SLC IAP SALT LAKE CITY INTL, Salt Lake City, UT. ILS OR LOC RWY 34L, AMDT 3A... MISSED APPROACH: CLIMB TO 4800 THEN CLIMBING LEFT TURN TO 9000 ON TCH VORTAC R-249 TO STACO INT/TCH 20.00 DME AND HOLD. 1708171229-1803291229EST CREATED: 17 Aug 2017 12:29:00 SOURCE: KDZZNAXX

!FDC 7/3386 SLC IAP SALT LAKE CITY INTL, Salt Lake City, UT. RNAV (GPS) RWY 34R, AMDT 1B ... LPV DA VISIBILITY RVR 1800 ALL CATS. THIS IS RNAV (GPS) RWY 34R, AMDT 1C. 1708171214-PERM CREATED: 17 Aug 2017 12:14:00 SOURCE: KDZZNAXX

!FDC 7/3385 SLC IAP SALT LAKE CITY INTL, Salt Lake City, UT. RNAV (GPS) RWY 34L, AMDT 1B ... LPV DA VISIBILITY RVR 1800 ALL CATS. THIS IS RNAV (GPS) RWY 34L, AMDT 1C. 1708171214-PERM CREATED: 17 Aug 2017 12:14:00 SOURCE: KDZZNAXX

!FDC 7/3383 SLC IAP SALT LAKE CITY INTL, Salt Lake City, UT. RNAV (GPS) RWY 17, AMDT 2A ... LPV DA VISIBILITY RVR 1800 ALL CATS. THIS IS RNAV (GPS) RWY 17, AMDT 2B. 1708171214-PERM CREATED: 17 Aug 2017 12:14:00 SOURCE: KDZZNAXX

!FDC 7/9117 SLC IAP SALT LAKE CITY INTL, Salt Lake City, UT. RNAV (GPS) RWY 34R, AMDT 1A... TERMINAL ROUTE BOAGY (IAF) TO PLAGE CHANGE COURSE TO READ 328.13. 1707281432-1803091432EST CREATED: 28 Jul 2017 14:33:00 SOURCE: KDZZNAXX

Runways at Salt Lake City International Airport

14-32

4,892 x 150 ft (1,491 x 46 m)

Surface paved, lighted.

16L-34R

12,004 x 150 ft (3,659 x 46 m)

Surface paved, lighted.

16R-34L

12,000 x 150 ft (3,658 x 46 m)

Surface paved, lighted.

17-35

9,596 x 150 ft (2,925 x 46 m)

Surface paved, lighted.

Threshold of Runway 35 displaced 324 ft (99 m)

Create an account or login to update runway information.

Radio frequencies for Salt Lake City International Airport

A/D

121.1 MHz

APP/DEP

ATIS

124.75 MHz

CLD

127.3 MHz

CLNC DEL

GND

121.9 MHz

OPS

30.3 MHz

ANG OPS

RDO

122.4 MHz

CEDAR CITY RDO

TWR

118.3 MHz

UNIC

122.95 MHz

UNICOM

Create an account or login to update airport frequencies.